createdAt,value
2019-03-11T00:00:38.866Z,4.01
2019-03-11T00:04:43.766Z,3.98
2019-03-11T00:08:48.661Z,3.94
2019-03-11T00:12:53.552Z,3.92
2019-03-11T00:16:58.450Z,3.90
2019-03-11T00:21:03.344Z,3.89
2019-03-11T00:25:08.245Z,3.87
2019-03-11T00:29:13.135Z,3.90
2019-03-11T00:33:18.016Z,3.90
2019-03-11T00:37:22.912Z,3.90
2019-03-11T00:41:27.817Z,3.89
2019-03-11T00:45:32.723Z,3.88
2019-03-11T00:49:37.615Z,4.01
2019-03-11T00:53:42.501Z,3.99
2019-03-11T00:57:47.406Z,3.99
2019-03-11T01:01:52.309Z,4.00
2019-03-11T01:05:57.241Z,4.07
2019-03-11T01:10:02.095Z,4.17
2019-03-11T01:14:08.242Z,4.26
2019-03-11T01:18:13.139Z,4.35
2019-03-11T01:22:18.042Z,4.42
2019-03-11T01:26:22.937Z,4.45
2019-03-11T01:30:27.844Z,4.52
2019-03-11T01:34:32.726Z,4.59
2019-03-11T01:38:37.627Z,4.61
2019-03-11T01:42:42.519Z,4.66
2019-03-11T01:46:47.414Z,4.67
2019-03-11T01:50:52.311Z,4.74
2019-03-11T01:54:57.234Z,4.78
2019-03-11T01:59:02.107Z,4.82
2019-03-11T02:03:07.247Z,4.86
2019-03-11T02:07:12.142Z,4.87
2019-03-11T02:11:17.024Z,4.88
2019-03-11T02:15:21.915Z,4.92
2019-03-11T02:19:26.799Z,4.94
2019-03-11T02:23:31.698Z,4.93
2019-03-11T02:27:36.595Z,4.94
2019-03-11T02:31:41.489Z,4.95
2019-03-11T02:35:46.380Z,5.00
2019-03-11T02:39:51.272Z,5.00
2019-03-11T02:43:56.173Z,5.01
2019-03-11T02:48:01.069Z,5.01
2019-03-11T02:52:05.966Z,5.37
2019-03-11T02:56:10.866Z,5.89
2019-03-11T03:00:19.143Z,5.64
2019-03-11T03:04:31.494Z,5.40
2019-03-11T03:08:36.386Z,5.19
2019-03-11T03:12:41.282Z,4.46
2019-03-11T03:16:46.178Z,3.73
2019-03-11T03:20:51.054Z,3.42
2019-03-11T03:24:55.941Z,3.30
2019-03-11T03:29:00.856Z,3.26
2019-03-11T03:33:05.735Z,3.21
2019-03-11T03:37:10.620Z,3.23
2019-03-11T03:41:15.498Z,3.24
2019-03-11T03:45:25.976Z,3.25
2019-03-11T03:49:31.934Z,3.20
2019-03-11T03:53:36.819Z,3.05
2019-03-11T03:57:41.729Z,3.01
2019-03-11T04:01:46.632Z,2.99
2019-03-11T04:05:51.490Z,3.02
2019-03-11T04:09:56.380Z,2.96
2019-03-11T04:14:01.270Z,2.86
2019-03-11T04:18:08.766Z,2.84
2019-03-11T04:22:13.646Z,2.71
2019-03-11T04:26:18.532Z,2.66
2019-03-11T04:30:29.635Z,2.56
2019-03-11T04:34:36.068Z,2.59
2019-03-11T04:38:41.193Z,2.55
2019-03-11T04:42:46.069Z,2.55
2019-03-11T04:46:50.973Z,3.06
2019-03-11T04:50:55.869Z,3.00
2019-03-11T04:55:00.755Z,2.69
2019-03-11T04:59:10.851Z,2.33
2019-03-11T05:03:15.723Z,2.21
2019-03-11T05:07:20.616Z,2.13
2019-03-11T05:11:25.512Z,2.08
2019-03-11T05:15:30.401Z,2.15
2019-03-11T05:19:35.303Z,2.16
2019-03-11T05:23:40.169Z,2.16
2019-03-11T05:27:46.132Z,2.11
2019-03-11T05:31:51.032Z,2.05
2019-03-11T05:35:55.919Z,2.04
2019-03-11T05:40:00.813Z,2.00
2019-03-11T05:44:05.686Z,1.97
2019-03-11T05:48:10.583Z,1.97
2019-03-11T05:52:15.470Z,1.94
2019-03-11T05:56:20.362Z,1.97
2019-03-11T06:00:29.627Z,2.00
2019-03-11T06:04:34.504Z,2.04
2019-03-11T06:08:39.391Z,2.07
2019-03-11T06:12:44.279Z,2.08
2019-03-11T06:16:49.172Z,2.10
2019-03-11T06:20:55.702Z,2.17
2019-03-11T06:25:00.576Z,2.25
2019-03-11T06:29:05.538Z,2.71
2019-03-11T06:33:10.429Z,2.91
2019-03-11T06:37:15.311Z,2.69
2019-03-11T06:41:20.201Z,2.57
2019-03-11T06:45:25.085Z,2.51
2019-03-11T06:49:30.943Z,2.42
2019-03-11T06:53:35.840Z,2.39
2019-03-11T06:57:40.800Z,2.36
2019-03-11T07:01:45.689Z,2.34
2019-03-11T07:05:50.589Z,2.36
2019-03-11T07:09:55.472Z,2.38
2019-03-11T07:14:00.371Z,2.44
2019-03-11T07:18:05.335Z,2.48
2019-03-11T07:22:10.215Z,2.54
2019-03-11T07:26:15.102Z,2.60
2019-03-11T07:30:21.130Z,2.76
2019-03-11T07:34:26.025Z,3.06
2019-03-11T07:38:30.920Z,3.28
2019-03-11T07:42:35.799Z,3.53
2019-03-11T07:46:40.680Z,3.52
2019-03-11T07:50:45.565Z,3.58
2019-03-11T07:54:50.454Z,3.67
2019-03-11T07:58:55.356Z,3.79
2019-03-11T08:03:00.245Z,4.22
2019-03-11T08:07:05.153Z,4.82
2019-03-11T08:11:10.019Z,4.84
2019-03-11T08:15:15.753Z,4.46
2019-03-11T08:19:20.643Z,4.32
2019-03-11T08:23:26.319Z,4.47
2019-03-11T08:27:31.214Z,4.51
2019-03-11T08:31:36.371Z,4.52
2019-03-11T08:35:41.253Z,4.75
2019-03-11T08:39:46.144Z,5.09
2019-03-11T08:43:51.038Z,5.82
2019-03-11T08:47:55.925Z,5.89
2019-03-11T08:52:01.195Z,5.63
2019-03-11T08:56:06.089Z,5.40
2019-03-11T09:00:16.875Z,5.25
2019-03-11T09:04:21.771Z,5.14
2019-03-11T09:08:26.660Z,4.88
2019-03-11T09:12:31.555Z,4.54
2019-03-11T09:16:36.440Z,4.34
2019-03-11T09:20:41.345Z,4.33
2019-03-11T09:24:47.059Z,4.31
2019-03-11T09:28:51.958Z,4.37
2019-03-11T09:32:56.850Z,4.29
2019-03-11T09:37:02.815Z,4.38
2019-03-11T09:41:07.720Z,4.75
2019-03-11T09:45:17.898Z,5.01
2019-03-11T09:49:24.381Z,5.29
2019-03-11T09:53:29.257Z,5.82
2019-03-11T09:57:34.155Z,5.76
2019-03-11T10:01:39.045Z,5.53
2019-03-11T10:05:45.109Z,5.67
2019-03-11T10:09:50.010Z,5.83
2019-03-11T10:13:54.904Z,6.22
2019-03-11T10:17:59.805Z,6.37
2019-03-11T10:22:04.702Z,6.37
2019-03-11T10:26:09.588Z,6.55
2019-03-11T10:30:21.683Z,6.75
2019-03-11T10:34:26.563Z,6.89
2019-03-11T10:38:31.450Z,6.82
2019-03-11T10:42:36.341Z,6.60
2019-03-11T10:46:41.237Z,6.75
2019-03-11T10:50:46.180Z,6.94
2019-03-11T10:54:51.034Z,6.86
2019-03-11T10:58:55.909Z,6.76
2019-03-11T11:03:01.151Z,6.58
2019-03-11T11:07:06.035Z,6.67
2019-03-11T11:11:11.217Z,6.46
2019-03-11T11:15:26.898Z,6.38
2019-03-11T11:19:31.786Z,6.41
2019-03-11T11:23:36.685Z,6.75
2019-03-11T11:27:41.582Z,6.62
2019-03-11T11:31:46.481Z,6.54
2019-03-11T11:35:51.377Z,6.44
2019-03-11T11:39:56.255Z,6.39
2019-03-11T11:44:01.152Z,6.40
2019-03-11T11:48:08.251Z,6.37
2019-03-11T11:52:12.635Z,6.22
2019-03-11T11:56:17.542Z,6.07
2019-03-11T12:00:35.555Z,6.11
2019-03-11T12:04:40.441Z,6.11
2019-03-11T12:08:45.340Z,6.20
2019-03-11T12:12:50.231Z,6.15
2019-03-11T12:16:55.130Z,6.05
2019-03-11T12:21:00.024Z,6.11
2019-03-11T12:25:07.853Z,6.41
2019-03-11T12:29:12.758Z,6.59
2019-03-11T12:33:20.237Z,6.69
2019-03-11T12:37:24.561Z,6.61
2019-03-11T12:41:29.447Z,6.78
2019-03-11T12:45:34.328Z,6.99
2019-03-11T12:49:39.216Z,7.06
2019-03-11T12:53:44.102Z,7.01
2019-03-11T12:57:48.997Z,6.67
2019-03-11T13:01:53.898Z,6.61
2019-03-11T13:05:58.778Z,6.81
2019-03-11T13:10:05.877Z,7.05
2019-03-11T13:14:11.807Z,7.20
2019-03-11T13:18:34.572Z,7.08
2019-03-11T13:22:39.470Z,6.68
2019-03-11T13:26:44.357Z,6.62
2019-03-11T13:30:49.253Z,6.37
2019-03-11T13:34:55.743Z,5.93
2019-03-11T13:39:00.635Z,5.57
2019-03-11T13:43:07.137Z,5.52
2019-03-11T13:47:12.019Z,5.52
2019-03-11T13:51:16.923Z,5.52
2019-03-11T13:55:21.873Z,5.58
2019-03-11T13:59:26.710Z,5.83
2019-03-11T14:03:31.602Z,5.98
2019-03-11T14:07:36.491Z,6.12
2019-03-11T14:11:41.383Z,6.48
2019-03-11T14:15:46.387Z,6.59
2019-03-11T14:19:51.791Z,6.53
2019-03-11T14:23:56.690Z,6.44
2019-03-11T14:28:01.571Z,6.22
2019-03-11T14:32:06.465Z,6.19
2019-03-11T14:36:11.365Z,6.25
2019-03-11T14:40:17.400Z,6.27
2019-03-11T14:44:22.291Z,6.27
2019-03-11T14:48:27.166Z,6.22
2019-03-11T14:52:33.564Z,6.20
2019-03-11T14:56:38.456Z,6.20
2019-03-11T15:00:43.345Z,5.90
2019-03-11T15:04:50.836Z,5.47
2019-03-11T15:08:54.883Z,5.34
2019-03-11T15:12:59.778Z,5.32
2019-03-11T15:17:04.666Z,5.29
2019-03-11T15:21:09.557Z,5.35
2019-03-11T15:25:15.485Z,5.43
2019-03-11T15:29:20.364Z,5.54
2019-03-11T15:33:25.255Z,5.66
2019-03-11T15:37:30.152Z,5.69
2019-03-11T15:41:35.039Z,5.41
2019-03-11T15:45:41.001Z,5.18
2019-03-11T15:49:45.881Z,5.13
2019-03-11T15:53:50.766Z,5.16
2019-03-11T15:57:55.658Z,5.25
2019-03-11T16:02:00.561Z,5.28
2019-03-11T16:06:06.545Z,5.28
2019-03-11T16:10:17.089Z,5.28
2019-03-11T16:14:20.443Z,5.24
2019-03-11T16:18:26.286Z,5.18
2019-03-11T16:22:32.237Z,5.17
2019-03-11T16:26:37.414Z,5.13
2019-03-11T16:30:42.370Z,5.12
2019-03-11T16:34:47.257Z,5.07
2019-03-11T16:38:52.143Z,5.05
2019-03-11T16:42:57.025Z,5.01
2019-03-11T16:47:01.924Z,4.95
2019-03-11T16:51:06.831Z,4.93
2019-03-11T16:55:19.298Z,4.90
2019-03-11T16:59:24.200Z,4.91
2019-03-11T17:03:29.083Z,4.89
2019-03-11T17:07:34.050Z,4.86
2019-03-11T17:11:38.944Z,4.82
2019-03-11T17:15:43.830Z,4.77
2019-03-11T17:19:48.713Z,4.72
2019-03-11T17:23:53.622Z,4.81
2019-03-11T17:27:58.522Z,4.76
2019-03-11T17:32:03.419Z,4.74
2019-03-11T17:36:08.384Z,4.72
2019-03-11T17:40:16.081Z,4.67
2019-03-11T17:44:20.978Z,4.65
2019-03-11T17:48:25.955Z,4.65
2019-03-11T17:52:30.849Z,4.66
2019-03-11T17:56:35.742Z,4.71
2019-03-11T18:00:42.277Z,4.78
2019-03-11T18:04:47.189Z,4.83
2019-03-11T18:08:52.156Z,4.90
2019-03-11T18:12:57.047Z,4.97
2019-03-11T18:17:01.937Z,5.03
2019-03-11T18:21:07.795Z,5.12
2019-03-11T18:25:14.904Z,5.09
2019-03-11T18:29:19.885Z,5.05
2019-03-11T18:33:24.775Z,5.00
2019-03-11T18:37:29.686Z,4.98
2019-03-11T18:41:34.560Z,5.04
2019-03-11T18:45:39.520Z,5.03
2019-03-11T18:49:45.373Z,5.00
2019-03-11T18:53:50.265Z,4.99
2019-03-11T18:57:55.136Z,4.97
2019-03-11T19:02:00.051Z,4.98
2019-03-11T19:06:04.969Z,5.00
2019-03-11T19:10:12.483Z,4.99
2019-03-11T19:14:17.402Z,4.84
2019-03-11T19:18:22.253Z,4.71
2019-03-11T19:22:27.146Z,4.63
2019-03-11T19:26:32.049Z,4.61
2019-03-11T19:30:36.936Z,4.64
2019-03-11T19:34:41.899Z,4.62
2019-03-11T19:38:46.822Z,4.64
2019-03-11T19:42:51.714Z,4.68
2019-03-11T19:46:56.602Z,4.68
2019-03-11T19:51:01.507Z,4.72
2019-03-11T19:55:07.580Z,4.65
2019-03-11T19:59:12.401Z,4.62
2019-03-11T20:03:26.419Z,4.61
2019-03-11T20:07:24.034Z,4.62
2019-03-11T20:11:29.289Z,4.61
2019-03-11T20:15:34.370Z,4.60
2019-03-11T20:19:39.397Z,4.62
2019-03-11T20:23:44.332Z,4.59
2019-03-11T20:27:49.216Z,4.55
2019-03-11T20:31:54.112Z,4.56
2019-03-11T20:35:58.977Z,4.56
2019-03-11T20:40:05.719Z,4.54
2019-03-11T20:44:10.662Z,4.54
2019-03-11T20:48:15.546Z,4.48
2019-03-11T20:52:20.502Z,4.47
2019-03-11T20:56:25.386Z,4.48
2019-03-11T21:00:30.275Z,4.48
2019-03-11T21:04:35.144Z,4.50
2019-03-11T21:08:40.184Z,4.49
2019-03-11T21:12:45.232Z,4.53
2019-03-11T21:16:50.172Z,4.53
2019-03-11T21:21:03.954Z,4.54
2019-03-11T21:25:01.684Z,4.55
2019-03-11T21:29:06.690Z,4.57
2019-03-11T21:33:11.617Z,4.55
2019-03-11T21:37:16.563Z,4.46
2019-03-11T21:41:21.495Z,4.37
2019-03-11T21:45:34.102Z,4.25
2019-03-11T21:49:33.019Z,4.19
2019-03-11T21:53:38.120Z,4.20
2019-03-11T21:57:42.991Z,4.23
2019-03-11T22:01:47.905Z,4.21
2019-03-11T22:05:52.811Z,4.20
2019-03-11T22:09:57.703Z,4.17
2019-03-11T22:14:02.600Z,4.16
2019-03-11T22:18:07.518Z,4.16
2019-03-11T22:22:12.385Z,4.17
2019-03-11T22:26:17.272Z,4.15
2019-03-11T22:30:24.074Z,4.22
2019-03-11T22:34:28.968Z,4.23
2019-03-11T22:38:33.866Z,4.21
2019-03-11T22:42:38.747Z,4.19
2019-03-11T22:46:43.638Z,4.19
2019-03-11T22:50:48.535Z,4.22
2019-03-11T22:54:53.425Z,4.23
2019-03-11T22:58:58.318Z,4.20
2019-03-11T23:03:06.523Z,4.17
2019-03-11T23:07:09.870Z,4.21
2019-03-11T23:11:14.767Z,4.21
2019-03-11T23:15:19.660Z,4.25
2019-03-11T23:19:24.557Z,4.35
2019-03-11T23:23:29.453Z,4.37
2019-03-11T23:27:35.387Z,4.33
2019-03-11T23:31:40.397Z,4.36
2019-03-11T23:35:45.365Z,4.38
2019-03-11T23:39:50.264Z,4.27
2019-03-11T23:43:55.160Z,4.11
2019-03-11T23:48:00.046Z,4.01
2019-03-11T23:52:04.939Z,3.95
2019-03-11T23:56:09.832Z,3.89
